Main page
METAR-TAF:

METAR-TAF

Airports :

Rabat–Salé Airport

Rabat, Morocco

latitude: 34-03N, longitude: 006-46W, elevation: 84 m

Current weather observation

The report was made 41 minutes ago, at 05:00 UTC
Calm wind
Temperature 5°C
Humidity 93%
Pressure 1025 hPa
Visibility: 8000 m

METAR: GMME 170500Z 00000KT 8000 NSC 05/04 Q1025 NOSIG

Time: 06:41 (05:41 UTC)

Forecast

The report was made 41 minutes ago, at 05:00 UTC
Forecast valid from 17 at 06 UTC to 18 at 12 UTC
Wind 8 kt from the Northwest
Visibility: 8000 m
Temporary
from 17 at 18 UTC to 17 at 24 UTC
Wind 5 kt from the Southeast
Probability 30% :
Temporary
from 18 at 02 UTC to 18 at 09 UTC
Wind 2 kt from variable directions
Visibility: 3000 m
Broken clouds at a height of 800 ft
mist

TAF: GMME 170500Z 1706/1812 32008KT 8000 NSC TEMPO 1718/1724 14005KT PROB30 TEMPO 1802/1809 VRB02KT 3000 BR BKN008

Weather observations and forecasts of more than 4000 airports (METAR and TAF reports).

The available stations are represented by yellow and red dots on the map.

Hover mouse over dot to see the name of the station.

Then click to see weather observations and forecasts.

To change the map : click on the green buttons with a black cross to zoom in, on the green button with a dash to zoom out, or on the green arrows for adjacent maps.


METAR-TAF: